sensor_id;sensor_type;location;lat;lon;timestamp;temperature;humidity
1992;DHT22;997;48.448;8.924;2023-08-07T03:03:26;12.10;99.90
1992;DHT22;997;48.448;8.924;2023-08-07T03:05:52;12.20;99.90
1992;DHT22;997;48.448;8.924;2023-08-07T03:08:17;12.10;99.90
1992;DHT22;997;48.448;8.924;2023-08-07T03:10:54;12.00;99.90
1992;DHT22;997;48.448;8.924;2023-08-07T03:13:28;12.00;99.90
1992;DHT22;997;48.448;8.924;2023-08-07T03:16:04;11.90;99.90
1992;DHT22;997;48.448;8.924;2023-08-07T03:18:30;11.90;99.90
1992;DHT22;997;48.448;8.924;2023-08-07T03:20:56;11.80;99.90
1992;DHT22;997;48.448;8.924;2023-08-07T03:23:23;11.70;99.90
1992;DHT22;997;48.448;8.924;2023-08-07T03:25:49;11.70;99.90
1992;DHT22;997;48.448;8.924;2023-08-07T03:28:15;11.60;99.90
1992;DHT22;997;48.448;8.924;2023-08-07T03:30:41;11.50;99.90
1992;DHT22;997;48.448;8.924;2023-08-07T03:33:07;11.50;99.90
1992;DHT22;997;48.448;8.924;2023-08-07T03:35:33;11.50;99.90
1992;DHT22;997;48.448;8.924;2023-08-07T03:37:59;11.40;99.90
1992;DHT22;997;48.448;8.924;2023-08-07T03:40:24;11.30;99.90
1992;DHT22;997;48.448;8.924;2023-08-07T03:42:50;11.40;99.90
1992;DHT22;997;48.448;8.924;2023-08-07T03:45:16;11.40;99.90
1992;DHT22;997;48.448;8.924;2023-08-07T03:47:41;11.40;99.90
1992;DHT22;997;48.448;8.924;2023-08-07T03:50:07;11.50;99.90
1992;DHT22;997;48.448;8.924;2023-08-07T03:52:33;11.40;99.90
1992;DHT22;997;48.448;8.924;2023-08-07T03:54:58;11.20;99.90
1992;DHT22;997;48.448;8.924;2023-08-07T03:57:25;11.30;99.90
1992;DHT22;997;48.448;8.924;2023-08-07T03:59:50;11.20;99.90
1992;DHT22;997;48.448;8.924;2023-08-07T04:02:16;11.20;99.90
1992;DHT22;997;48.448;8.924;2023-08-07T04:04:42;11.00;99.90
1992;DHT22;997;48.448;8.924;2023-08-07T04:07:07;11.10;99.90
1992;DHT22;997;48.448;8.924;2023-08-07T04:09:33;11.00;99.90
1992;DHT22;997;48.448;8.924;2023-08-07T04:11:59;11.10;99.90
1992;DHT22;997;48.448;8.924;2023-08-07T04:14:24;11.00;99.90
1992;DHT22;997;48.448;8.924;2023-08-07T04:16:50;10.90;99.90
1992;DHT22;997;48.448;8.924;2023-08-07T04:19:16;10.90;99.90
1992;DHT22;997;48.448;8.924;2023-08-07T04:21:41;10.90;99.90
1992;DHT22;997;48.448;8.924;2023-08-07T04:24:07;10.90;99.90
1992;DHT22;997;48.448;8.924;2023-08-07T04:26:39;10.70;99.90
1992;DHT22;997;48.448;8.924;2023-08-07T04:29:05;10.60;99.90
1992;DHT22;997;48.448;8.924;2023-08-07T04:31:31;10.60;99.90
1992;DHT22;997;48.448;8.924;2023-08-07T04:33:58;10.60;99.90
1992;DHT22;997;48.448;8.924;2023-08-07T04:36:24;10.60;99.90
1992;DHT22;997;48.448;8.924;2023-08-07T04:38:50;10.70;99.90
1992;DHT22;997;48.448;8.924;2023-08-07T04:41:16;10.60;99.90
1992;DHT22;997;48.448;8.924;2023-08-07T04:43:42;10.60;99.90
1992;DHT22;997;48.448;8.924;2023-08-07T04:46:09;10.60;99.90
1992;DHT22;997;48.448;8.924;2023-08-07T04:48:35;10.60;99.90
1992;DHT22;997;48.448;8.924;2023-08-07T04:51:02;10.60;99.90
1992;DHT22;997;48.448;8.924;2023-08-07T04:53:27;10.50;99.90
1992;DHT22;997;48.448;8.924;2023-08-07T04:55:53;10.50;99.90
1992;DHT22;997;48.448;8.924;2023-08-07T04:58:19;10.50;99.90
1992;DHT22;997;48.448;8.924;2023-08-07T05:00:44;10.60;99.90
1992;DHT22;997;48.448;8.924;2023-08-07T05:03:10;10.60;99.90
1992;DHT22;997;48.448;8.924;2023-08-07T05:05:36;10.60;99.90
1992;DHT22;997;48.448;8.924;2023-08-07T05:08:01;10.60;99.90
1992;DHT22;997;48.448;8.924;2023-08-07T05:10:27;10.70;99.90
1992;DHT22;997;48.448;8.924;2023-08-07T05:12:53;10.70;99.90
1992;DHT22;997;48.448;8.924;2023-08-07T05:15:25;10.90;99.90
1992;DHT22;997;48.448;8.924;2023-08-07T05:17:52;11.00;99.90
1992;DHT22;997;48.448;8.924;2023-08-07T05:20:17;11.00;99.90
1992;DHT22;997;48.448;8.924;2023-08-07T05:22:44;11.10;99.90
1992;DHT22;997;48.448;8.924;2023-08-07T05:25:09;11.20;99.90
1992;DHT22;997;48.448;8.924;2023-08-07T05:27:37;11.20;99.90
1992;DHT22;997;48.448;8.924;2023-08-07T05:30:03;11.30;99.90
1992;DHT22;997;48.448;8.924;2023-08-07T05:32:29;11.40;99.90
1992;DHT22;997;48.448;8.924;2023-08-07T05:34:55;11.40;99.90
1992;DHT22;997;48.448;8.924;2023-08-07T05:37:21;11.60;99.90
1992;DHT22;997;48.448;8.924;2023-08-07T05:39:46;11.60;99.90
1992;DHT22;997;48.448;8.924;2023-08-07T05:42:12;11.70;99.90
1992;DHT22;997;48.448;8.924;2023-08-07T05:44:38;11.80;99.90
1992;DHT22;997;48.448;8.924;2023-08-07T05:47:04;11.80;99.90
1992;DHT22;997;48.448;8.924;2023-08-07T05:49:30;11.90;99.90
1992;DHT22;997;48.448;8.924;2023-08-07T05:51:56;12.00;99.90
1992;DHT22;997;48.448;8.924;2023-08-07T05:54:22;12.00;99.90
1992;DHT22;997;48.448;8.924;2023-08-07T05:56:47;12.10;99.90
1992;DHT22;997;48.448;8.924;2023-08-07T05:59:13;12.20;99.90
1992;DHT22;997;48.448;8.924;2023-08-07T06:01:39;12.20;99.90
1992;DHT22;997;48.448;8.924;2023-08-07T06:04:06;12.30;99.90
1992;DHT22;997;48.448;8.924;2023-08-07T06:06:32;12.50;99.90
1992;DHT22;997;48.448;8.924;2023-08-07T06:09:00;12.60;99.90
1992;DHT22;997;48.448;8.924;2023-08-07T06:11:27;12.70;99.90
1992;DHT22;997;48.448;8.924;2023-08-07T06:13:52;12.70;99.90
1992;DHT22;997;48.448;8.924;2023-08-07T06:16:18;12.70;99.90
1992;DHT22;997;48.448;8.924;2023-08-07T06:18:44;12.80;99.90
1992;DHT22;997;48.448;8.924;2023-08-07T06:21:09;12.80;99.90
1992;DHT22;997;48.448;8.924;2023-08-07T06:23:36;12.90;99.90
1992;DHT22;997;48.448;8.924;2023-08-07T06:26:02;12.80;99.90
1992;DHT22;997;48.448;8.924;2023-08-07T06:28:33;12.90;99.90
1992;DHT22;997;48.448;8.924;2023-08-07T06:31:06;12.90;99.90
1992;DHT22;997;48.448;8.924;2023-08-07T06:33:32;13.00;99.90
1992;DHT22;997;48.448;8.924;2023-08-07T06:35:59;13.10;99.90
1992;DHT22;997;48.448;8.924;2023-08-07T06:38:25;13.20;99.90
1992;DHT22;997;48.448;8.924;2023-08-07T06:40:51;13.20;99.90
1992;DHT22;997;48.448;8.924;2023-08-07T06:43:16;13.30;99.90
1992;DHT22;997;48.448;8.924;2023-08-07T06:45:42;13.40;99.90
1992;DHT22;997;48.448;8.924;2023-08-07T06:48:08;13.40;99.90
1992;DHT22;997;48.448;8.924;2023-08-07T06:50:33;13.40;99.90
1992;DHT22;997;48.448;8.924;2023-08-07T06:52:59;13.40;99.90
1992;DHT22;997;48.448;8.924;2023-08-07T06:55:25;13.50;99.90
1992;DHT22;997;48.448;8.924;2023-08-07T06:57:51;13.70;99.90
1992;DHT22;997;48.448;8.924;2023-08-07T07:00:17;13.70;99.90
1992;DHT22;997;48.448;8.924;2023-08-07T07:02:43;13.70;99.90
1992;DHT22;997;48.448;8.924;2023-08-07T07:05:08;13.70;99.90
1992;DHT22;997;48.448;8.924;2023-08-07T07:07:35;13.80;99.90
1992;DHT22;997;48.448;8.924;2023-08-07T07:10:00;13.80;99.90
1992;DHT22;997;48.448;8.924;2023-08-07T07:12:27;13.80;99.90
1992;DHT22;997;48.448;8.924;2023-08-07T07:14:53;13.80;99.90
1992;DHT22;997;48.448;8.924;2023-08-07T07:17:18;13.70;99.90
1992;DHT22;997;48.448;8.924;2023-08-07T07:19:44;13.80;99.90
1992;DHT22;997;48.448;8.924;2023-08-07T07:22:10;13.80;99.90
1992;DHT22;997;48.448;8.924;2023-08-07T07:24:36;13.80;99.90
1992;DHT22;997;48.448;8.924;2023-08-07T07:27:01;13.90;99.90
1992;DHT22;997;48.448;8.924;2023-08-07T07:29:28;14.00;99.90
1992;DHT22;997;48.448;8.924;2023-08-07T07:31:54;14.00;99.90
1992;DHT22;997;48.448;8.924;2023-08-07T07:34:21;13.90;99.90
1992;DHT22;997;48.448;8.924;2023-08-07T07:36:46;14.00;99.90
1992;DHT22;997;48.448;8.924;2023-08-07T07:39:12;14.10;99.90
1992;DHT22;997;48.448;8.924;2023-08-07T07:41:38;14.10;99.90
1992;DHT22;997;48.448;8.924;2023-08-07T07:44:04;14.10;99.90
1992;DHT22;997;48.448;8.924;2023-08-07T07:46:29;14.10;99.90
1992;DHT22;997;48.448;8.924;2023-08-07T07:48:57;14.20;99.90
1992;DHT22;997;48.448;8.924;2023-08-07T07:51:22;14.30;99.90
1992;DHT22;997;48.448;8.924;2023-08-07T07:53:48;14.30;99.90
1992;DHT22;997;48.448;8.924;2023-08-07T07:56:14;14.50;99.90
1992;DHT22;997;48.448;8.924;2023-08-07T07:58:40;14.70;99.90
1992;DHT22;997;48.448;8.924;2023-08-07T08:01:07;14.90;99.90
1992;DHT22;997;48.448;8.924;2023-08-07T08:03:32;15.10;99.90
1992;DHT22;997;48.448;8.924;2023-08-07T08:05:58;15.10;99.90
1992;DHT22;997;48.448;8.924;2023-08-07T08:08:24;15.00;99.90
1992;DHT22;997;48.448;8.924;2023-08-07T08:10:50;15.00;99.90
1992;DHT22;997;48.448;8.924;2023-08-07T08:13:17;14.90;99.90
1992;DHT22;997;48.448;8.924;2023-08-07T08:15:43;15.10;99.90
1992;DHT22;997;48.448;8.924;2023-08-07T08:18:09;15.20;99.90
1992;DHT22;997;48.448;8.924;2023-08-07T08:20:35;15.30;99.90
1992;DHT22;997;48.448;8.924;2023-08-07T08:23:01;15.30;99.90
1992;DHT22;997;48.448;8.924;2023-08-07T08:25:26;15.20;99.90
1992;DHT22;997;48.448;8.924;2023-08-07T08:27:52;15.10;99.90
1992;DHT22;997;48.448;8.924;2023-08-07T08:30:18;14.90;99.90
1992;DHT22;997;48.448;8.924;2023-08-07T08:32:43;15.00;99.90
1992;DHT22;997;48.448;8.924;2023-08-07T08:35:09;15.00;99.90
1992;DHT22;997;48.448;8.924;2023-08-07T08:37:35;15.00;99.90
1992;DHT22;997;48.448;8.924;2023-08-07T08:40:01;14.90;99.90
1992;DHT22;997;48.448;8.924;2023-08-07T08:42:27;14.90;99.90
1992;DHT22;997;48.448;8.924;2023-08-07T08:44:55;15.00;99.90
1992;DHT22;997;48.448;8.924;2023-08-07T08:47:22;15.10;99.90
1992;DHT22;997;48.448;8.924;2023-08-07T08:49:51;15.30;99.90
1992;DHT22;997;48.448;8.924;2023-08-07T08:52:20;15.70;99.90
1992;DHT22;997;48.448;8.924;2023-08-07T08:54:47;15.80;99.90
1992;DHT22;997;48.448;8.924;2023-08-07T08:57:13;15.80;99.90
1992;DHT22;997;48.448;8.924;2023-08-07T08:59:43;15.80;99.90
1992;DHT22;997;48.448;8.924;2023-08-07T09:02:08;15.80;99.90
1992;DHT22;997;48.448;8.924;2023-08-07T09:04:36;15.70;99.90
1992;DHT22;997;48.448;8.924;2023-08-07T09:07:01;15.70;99.90
1992;DHT22;997;48.448;8.924;2023-08-07T09:09:27;15.70;99.90
1992;DHT22;997;48.448;8.924;2023-08-07T09:11:54;15.70;99.90
1992;DHT22;997;48.448;8.924;2023-08-07T09:14:24;15.80;99.90
1992;DHT22;997;48.448;8.924;2023-08-07T09:16:54;15.90;99.90
1992;DHT22;997;48.448;8.924;2023-08-07T09:19:20;16.10;99.90
1992;DHT22;997;48.448;8.924;2023-08-07T09:21:46;15.90;99.90
1992;DHT22;997;48.448;8.924;2023-08-07T09:24:11;15.90;99.90
1992;DHT22;997;48.448;8.924;2023-08-07T09:26:38;15.90;99.90
1992;DHT22;997;48.448;8.924;2023-08-07T09:29:07;15.80;99.90
1992;DHT22;997;48.448;8.924;2023-08-07T09:31:36;15.80;99.90
1992;DHT22;997;48.448;8.924;2023-08-07T09:34:03;15.90;99.90
1992;DHT22;997;48.448;8.924;2023-08-07T09:36:30;16.20;99.90
1992;DHT22;997;48.448;8.924;2023-08-07T09:39:00;16.50;99.90
1992;DHT22;997;48.448;8.924;2023-08-07T09:41:28;16.70;99.90
1992;DHT22;997;48.448;8.924;2023-08-07T09:43:54;16.60;99.90
1992;DHT22;997;48.448;8.924;2023-08-07T09:46:20;16.40;99.90
1992;DHT22;997;48.448;8.924;2023-08-07T09:48:47;16.40;99.90
1992;DHT22;997;48.448;8.924;2023-08-07T09:51:12;16.40;99.90
1992;DHT22;997;48.448;8.924;2023-08-07T09:53:38;16.30;99.90
1992;DHT22;997;48.448;8.924;2023-08-07T09:56:04;16.20;99.90
1992;DHT22;997;48.448;8.924;2023-08-07T09:58:30;16.20;99.90
1992;DHT22;997;48.448;8.924;2023-08-07T10:00:55;16.30;99.90
1992;DHT22;997;48.448;8.924;2023-08-07T10:03:25;16.30;99.90
1992;DHT22;997;48.448;8.924;2023-08-07T10:05:52;16.30;99.90
1992;DHT22;997;48.448;8.924;2023-08-07T10:08:18;16.30;99.90
1992;DHT22;997;48.448;8.924;2023-08-07T10:10:44;16.30;99.90
1992;DHT22;997;48.448;8.924;2023-08-07T10:13:13;16.30;99.90
1992;DHT22;997;48.448;8.924;2023-08-07T10:15:40;16.20;99.90
1992;DHT22;997;48.448;8.924;2023-08-07T10:18:08;16.30;99.90
1992;DHT22;997;48.448;8.924;2023-08-07T10:20:34;16.60;99.90
1992;DHT22;997;48.448;8.924;2023-08-07T10:23:17;16.90;99.90
1992;DHT22;997;48.448;8.924;2023-08-07T10:25:45;17.20;99.90
1992;DHT22;997;48.448;8.924;2023-08-07T10:28:15;17.30;99.90
1992;DHT22;997;48.448;8.924;2023-08-07T10:30:42;17.10;99.90
1992;DHT22;997;48.448;8.924;2023-08-07T10:33:10;17.00;99.90
1992;DHT22;997;48.448;8.924;2023-08-07T10:35:37;17.00;99.90
1992;DHT22;997;48.448;8.924;2023-08-07T10:38:10;16.90;99.90
1992;DHT22;997;48.448;8.924;2023-08-07T10:40:58;17.00;99.90
1992;DHT22;997;48.448;8.924;2023-08-07T10:43:25;17.10;99.90
1992;DHT22;997;48.448;8.924;2023-08-07T10:45:53;17.30;99.90
1992;DHT22;997;48.448;8.924;2023-08-07T10:48:19;17.60;99.90
1992;DHT22;997;48.448;8.924;2023-08-07T10:53:30;17.60;99.90
1992;DHT22;997;48.448;8.924;2023-08-07T10:55:57;17.60;99.90
1992;DHT22;997;48.448;8.924;2023-08-07T11:01:17;17.70;99.90
1992;DHT22;997;48.448;8.924;2023-08-07T11:03:45;17.90;99.90
1992;DHT22;997;48.448;8.924;2023-08-07T11:06:13;18.00;99.90
1992;DHT22;997;48.448;8.924;2023-08-07T11:08:39;18.10;99.90
1992;DHT22;997;48.448;8.924;2023-08-07T11:11:06;18.10;99.90
1992;DHT22;997;48.448;8.924;2023-08-07T11:13:33;18.30;99.90
1992;DHT22;997;48.448;8.924;2023-08-07T11:16:00;18.40;99.90
1992;DHT22;997;48.448;8.924;2023-08-07T11:18:26;18.30;99.90
1992;DHT22;997;48.448;8.924;2023-08-07T11:20:53;18.10;99.90
1992;DHT22;997;48.448;8.924;2023-08-07T11:23:27;17.90;99.90
1992;DHT22;997;48.448;8.924;2023-08-07T11:25:53;17.70;99.90
1992;DHT22;997;48.448;8.924;2023-08-07T11:28:20;17.70;99.90
1992;DHT22;997;48.448;8.924;2023-08-07T11:30:50;17.50;99.90
1992;DHT22;997;48.448;8.924;2023-08-07T11:33:20;17.40;99.90
1992;DHT22;997;48.448;8.924;2023-08-07T11:35:49;17.30;99.90
1992;DHT22;997;48.448;8.924;2023-08-07T11:38:38;17.30;99.90
1992;DHT22;997;48.448;8.924;2023-08-07T11:41:06;17.50;99.90
1992;DHT22;997;48.448;8.924;2023-08-07T11:43:33;17.60;99.90
1992;DHT22;997;48.448;8.924;2023-08-07T11:46:00;17.60;99.90
1992;DHT22;997;48.448;8.924;2023-08-07T11:48:27;17.70;99.90
1992;DHT22;997;48.448;8.924;2023-08-07T11:50:54;17.80;99.90
1992;DHT22;997;48.448;8.924;2023-08-07T11:53:27;17.90;99.90
1992;DHT22;997;48.448;8.924;2023-08-07T11:55:55;18.00;99.90
1992;DHT22;997;48.448;8.924;2023-08-07T11:58:21;18.20;99.90
1992;DHT22;997;48.448;8.924;2023-08-07T12:00:47;18.20;99.90
1992;DHT22;997;48.448;8.924;2023-08-07T12:03:30;18.10;99.90
1992;DHT22;997;48.448;8.924;2023-08-07T12:05:57;18.00;99.90
1992;DHT22;997;48.448;8.924;2023-08-07T12:08:40;18.00;99.90
1992;DHT22;997;48.448;8.924;2023-08-07T12:11:11;18.00;99.90
1992;DHT22;997;48.448;8.924;2023-08-07T12:13:39;17.60;99.90
1992;DHT22;997;48.448;8.924;2023-08-07T12:16:05;17.40;99.90
1992;DHT22;997;48.448;8.924;2023-08-07T12:18:32;17.40;99.90
1992;DHT22;997;48.448;8.924;2023-08-07T12:21:07;17.60;99.90
1992;DHT22;997;48.448;8.924;2023-08-07T12:23:33;17.60;99.90
1992;DHT22;997;48.448;8.924;2023-08-07T12:25:59;17.60;99.90
1992;DHT22;997;48.448;8.924;2023-08-07T12:28:25;17.60;99.90
1992;DHT22;997;48.448;8.924;2023-08-07T12:30:51;17.70;99.90
1992;DHT22;997;48.448;8.924;2023-08-07T12:33:17;17.70;99.90
1992;DHT22;997;48.448;8.924;2023-08-07T12:35:43;17.50;99.90
1992;DHT22;997;48.448;8.924;2023-08-07T12:38:10;17.50;99.90
1992;DHT22;997;48.448;8.924;2023-08-07T12:40:36;17.20;99.90
1992;DHT22;997;48.448;8.924;2023-08-07T12:43:03;16.60;99.90
1992;DHT22;997;48.448;8.924;2023-08-07T12:45:29;16.50;99.90
1992;DHT22;997;48.448;8.924;2023-08-07T12:47:54;16.40;99.90
1992;DHT22;997;48.448;8.924;2023-08-07T12:50:20;16.30;99.90
1992;DHT22;997;48.448;8.924;2023-08-07T12:52:46;16.40;99.90
1992;DHT22;997;48.448;8.924;2023-08-07T12:55:11;16.50;99.90
1992;DHT22;997;48.448;8.924;2023-08-07T12:57:40;16.60;99.90
1992;DHT22;997;48.448;8.924;2023-08-07T13:00:06;16.70;99.90
1992;DHT22;997;48.448;8.924;2023-08-07T13:02:33;17.00;99.90
1992;DHT22;997;48.448;8.924;2023-08-07T13:04:59;17.10;99.90
1992;DHT22;997;48.448;8.924;2023-08-07T13:07:25;17.20;99.90
1992;DHT22;997;48.448;8.924;2023-08-07T13:09:51;17.20;99.90
1992;DHT22;997;48.448;8.924;2023-08-07T13:12:16;17.20;99.90
1992;DHT22;997;48.448;8.924;2023-08-07T13:14:42;17.20;99.90
1992;DHT22;997;48.448;8.924;2023-08-07T13:17:08;17.30;99.90
1992;DHT22;997;48.448;8.924;2023-08-07T13:19:33;17.50;99.90
1992;DHT22;997;48.448;8.924;2023-08-07T13:21:59;17.40;99.90
1992;DHT22;997;48.448;8.924;2023-08-07T13:24:24;17.40;99.90
1992;DHT22;997;48.448;8.924;2023-08-07T13:26:50;17.40;99.90
1992;DHT22;997;48.448;8.924;2023-08-07T13:29:16;17.70;99.90
1992;DHT22;997;48.448;8.924;2023-08-07T13:31:41;17.90;99.90
1992;DHT22;997;48.448;8.924;2023-08-07T13:34:09;18.00;99.90
1992;DHT22;997;48.448;8.924;2023-08-07T13:36:36;18.30;99.90
1992;DHT22;997;48.448;8.924;2023-08-07T13:39:06;18.70;99.90
1992;DHT22;997;48.448;8.924;2023-08-07T13:41:32;19.10;99.90
1992;DHT22;997;48.448;8.924;2023-08-07T13:43:58;19.30;99.90
1992;DHT22;997;48.448;8.924;2023-08-07T13:46:25;19.30;99.90
1992;DHT22;997;48.448;8.924;2023-08-07T13:48:50;19.30;99.90
1992;DHT22;997;48.448;8.924;2023-08-07T13:51:16;19.40;99.90
1992;DHT22;997;48.448;8.924;2023-08-07T13:53:43;19.30;99.90
1992;DHT22;997;48.448;8.924;2023-08-07T13:56:09;19.20;99.90
1992;DHT22;997;48.448;8.924;2023-08-07T13:58:41;19.40;99.90
1992;DHT22;997;48.448;8.924;2023-08-07T14:01:07;19.40;99.90
1992;DHT22;997;48.448;8.924;2023-08-07T14:03:33;19.80;99.90
1992;DHT22;997;48.448;8.924;2023-08-07T14:06:00;20.20;99.90
1992;DHT22;997;48.448;8.924;2023-08-07T14:08:26;20.40;99.90
1992;DHT22;997;48.448;8.924;2023-08-07T14:10:51;20.80;99.90
1992;DHT22;997;48.448;8.924;2023-08-07T14:13:17;20.90;99.90
1992;DHT22;997;48.448;8.924;2023-08-07T14:15:42;20.80;99.90
1992;DHT22;997;48.448;8.924;2023-08-07T14:18:08;20.50;99.90
1992;DHT22;997;48.448;8.924;2023-08-07T14:20:35;20.50;99.90
1992;DHT22;997;48.448;8.924;2023-08-07T14:23:00;20.10;99.90
1992;DHT22;997;48.448;8.924;2023-08-07T14:25:26;19.70;99.90
1992;DHT22;997;48.448;8.924;2023-08-07T14:27:52;19.50;99.90
1992;DHT22;997;48.448;8.924;2023-08-07T14:30:19;19.50;99.90
1992;DHT22;997;48.448;8.924;2023-08-07T14:32:44;19.40;99.90
1992;DHT22;997;48.448;8.924;2023-08-07T14:35:15;19.30;99.90
1992;DHT22;997;48.448;8.924;2023-08-07T14:37:41;19.20;99.90
1992;DHT22;997;48.448;8.924;2023-08-07T14:40:07;18.90;99.90
1992;DHT22;997;48.448;8.924;2023-08-07T14:42:33;18.70;99.90
1992;DHT22;997;48.448;8.924;2023-08-07T14:44:59;18.50;99.90
1992;DHT22;997;48.448;8.924;2023-08-07T14:47:25;18.30;99.90
1992;DHT22;997;48.448;8.924;2023-08-07T14:49:51;18.20;99.90
1992;DHT22;997;48.448;8.924;2023-08-07T14:52:17;18.10;99.90
1992;DHT22;997;48.448;8.924;2023-08-07T14:54:43;18.30;99.90
1992;DHT22;997;48.448;8.924;2023-08-07T14:57:09;18.70;99.90
1992;DHT22;997;48.448;8.924;2023-08-07T14:59:34;19.50;99.90
1992;DHT22;997;48.448;8.924;2023-08-07T15:02:00;20.10;99.90
1992;DHT22;997;48.448;8.924;2023-08-07T15:04:26;20.90;99.90
1992;DHT22;997;48.448;8.924;2023-08-07T15:06:51;20.90;99.90
1992;DHT22;997;48.448;8.924;2023-08-07T15:09:17;20.30;99.90
1992;DHT22;997;48.448;8.924;2023-08-07T15:11:46;20.20;99.90
1992;DHT22;997;48.448;8.924;2023-08-07T15:14:12;20.00;99.90
1992;DHT22;997;48.448;8.924;2023-08-07T15:16:38;19.80;99.90
1992;DHT22;997;48.448;8.924;2023-08-07T15:19:04;19.80;99.90
1992;DHT22;997;48.448;8.924;2023-08-07T15:21:30;19.90;99.90
1992;DHT22;997;48.448;8.924;2023-08-07T15:23:56;20.20;99.90
1992;DHT22;997;48.448;8.924;2023-08-07T15:26:22;21.40;99.90
1992;DHT22;997;48.448;8.924;2023-08-07T15:28:48;22.40;99.90
1992;DHT22;997;48.448;8.924;2023-08-07T15:31:13;23.20;99.90
1992;DHT22;997;48.448;8.924;2023-08-07T15:33:39;23.60;99.90
1992;DHT22;997;48.448;8.924;2023-08-07T15:36:05;24.00;99.90
1992;DHT22;997;48.448;8.924;2023-08-07T15:38:31;24.00;99.90
1992;DHT22;997;48.448;8.924;2023-08-07T15:41:01;23.60;99.00
1992;DHT22;997;48.448;8.924;2023-08-07T15:43:27;23.10;97.90
1992;DHT22;997;48.448;8.924;2023-08-07T15:45:53;22.70;98.50
1992;DHT22;997;48.448;8.924;2023-08-07T15:48:19;22.10;99.20
1992;DHT22;997;48.448;8.924;2023-08-07T15:50:47;21.60;99.90
1992;DHT22;997;48.448;8.924;2023-08-07T15:53:13;21.00;99.90
1992;DHT22;997;48.448;8.924;2023-08-07T15:55:39;21.60;99.90
1992;DHT22;997;48.448;8.924;2023-08-07T15:58:06;22.50;99.90
1992;DHT22;997;48.448;8.924;2023-08-07T16:00:34;23.30;99.90
1992;DHT22;997;48.448;8.924;2023-08-07T16:03:07;24.20;98.10
1992;DHT22;997;48.448;8.924;2023-08-07T16:05:34;24.90;96.20
1992;DHT22;997;48.448;8.924;2023-08-07T16:08:01;25.40;94.20
1992;DHT22;997;48.448;8.924;2023-08-07T16:10:28;25.60;93.80
1992;DHT22;997;48.448;8.924;2023-08-07T16:12:57;24.70;94.00
1992;DHT22;997;48.448;8.924;2023-08-07T16:15:24;24.10;95.10
1992;DHT22;997;48.448;8.924;2023-08-07T16:17:51;24.00;95.00
1992;DHT22;997;48.448;8.924;2023-08-07T16:20:20;24.00;92.10
1992;DHT22;997;48.448;8.924;2023-08-07T16:22:48;23.90;92.40
1992;DHT22;997;48.448;8.924;2023-08-07T16:25:16;23.70;94.00
1992;DHT22;997;48.448;8.924;2023-08-07T16:27:44;23.60;93.60
1992;DHT22;997;48.448;8.924;2023-08-07T16:30:20;24.20;94.50
1992;DHT22;997;48.448;8.924;2023-08-07T16:32:48;24.70;92.90
1992;DHT22;997;48.448;8.924;2023-08-07T16:35:15;24.70;91.90
1992;DHT22;997;48.448;8.924;2023-08-07T16:37:52;24.90;91.50
1992;DHT22;997;48.448;8.924;2023-08-07T16:40:19;25.20;91.20
1992;DHT22;997;48.448;8.924;2023-08-07T16:42:47;25.30;91.10
1992;DHT22;997;48.448;8.924;2023-08-07T16:45:24;25.40;90.70
1992;DHT22;997;48.448;8.924;2023-08-07T16:47:50;25.20;90.30
1992;DHT22;997;48.448;8.924;2023-08-07T16:50:18;25.60;88.70
1992;DHT22;997;48.448;8.924;2023-08-07T16:52:57;25.70;88.90
1992;DHT22;997;48.448;8.924;2023-08-07T16:55:26;25.10;87.80
1992;DHT22;997;48.448;8.924;2023-08-07T16:57:55;24.70;89.10
1992;DHT22;997;48.448;8.924;2023-08-07T17:00:25;24.50;88.60
1992;DHT22;997;48.448;8.924;2023-08-07T17:02:51;24.00;90.50
1992;DHT22;997;48.448;8.924;2023-08-07T17:05:21;23.90;90.90
1992;DHT22;997;48.448;8.924;2023-08-07T17:07:48;24.50;90.70
1992;DHT22;997;48.448;8.924;2023-08-07T17:10:14;24.80;89.20
1992;DHT22;997;48.448;8.924;2023-08-07T17:12:44;24.40;88.80
1992;DHT22;997;48.448;8.924;2023-08-07T17:15:10;24.20;88.90
1992;DHT22;997;48.448;8.924;2023-08-07T17:17:36;23.30;89.50
1992;DHT22;997;48.448;8.924;2023-08-07T17:20:03;23.10;90.90
1992;DHT22;997;48.448;8.924;2023-08-07T17:22:29;22.70;91.50
1992;DHT22;997;48.448;8.924;2023-08-07T17:24:56;22.70;91.70
1992;DHT22;997;48.448;8.924;2023-08-07T17:27:22;22.10;91.60
1992;DHT22;997;48.448;8.924;2023-08-07T17:29:48;21.60;91.70
1992;DHT22;997;48.448;8.924;2023-08-07T17:32:14;21.10;92.60
1992;DHT22;997;48.448;8.924;2023-08-07T17:34:42;20.70;93.70
1992;DHT22;997;48.448;8.924;2023-08-07T17:37:08;20.40;93.90
1992;DHT22;997;48.448;8.924;2023-08-07T17:39:34;20.00;94.30
1992;DHT22;997;48.448;8.924;2023-08-07T17:42:01;19.90;95.10
1992;DHT22;997;48.448;8.924;2023-08-07T17:44:29;19.60;95.30
1992;DHT22;997;48.448;8.924;2023-08-07T17:46:56;19.50;96.10
1992;DHT22;997;48.448;8.924;2023-08-07T17:49:22;19.50;96.40
1992;DHT22;997;48.448;8.924;2023-08-07T17:51:47;19.30;96.80
1992;DHT22;997;48.448;8.924;2023-08-07T17:54:13;19.10;97.10
1992;DHT22;997;48.448;8.924;2023-08-07T17:56:39;19.10;97.60
1992;DHT22;997;48.448;8.924;2023-08-07T17:59:05;19.20;98.80
1992;DHT22;997;48.448;8.924;2023-08-07T18:01:31;19.20;98.90
1992;DHT22;997;48.448;8.924;2023-08-07T18:03:57;18.90;98.60
1992;DHT22;997;48.448;8.924;2023-08-07T18:06:29;18.70;99.00
1992;DHT22;997;48.448;8.924;2023-08-07T18:08:55;18.70;99.70
1992;DHT22;997;48.448;8.924;2023-08-07T18:11:20;18.70;99.60
1992;DHT22;997;48.448;8.924;2023-08-07T18:13:46;18.70;99.90
1992;DHT22;997;48.448;8.924;2023-08-07T18:16:15;18.80;99.90
1992;DHT22;997;48.448;8.924;2023-08-07T18:18:41;18.90;99.90
1992;DHT22;997;48.448;8.924;2023-08-07T18:21:09;18.90;99.90
1992;DHT22;997;48.448;8.924;2023-08-07T18:23:34;19.00;99.90
1992;DHT22;997;48.448;8.924;2023-08-07T18:26:00;19.00;99.90
1992;DHT22;997;48.448;8.924;2023-08-07T18:28:26;19.00;99.90
1992;DHT22;997;48.448;8.924;2023-08-07T18:30:51;19.10;99.90
1992;DHT22;997;48.448;8.924;2023-08-07T18:33:17;19.00;99.90
1992;DHT22;997;48.448;8.924;2023-08-07T18:35:44;19.00;99.90
1992;DHT22;997;48.448;8.924;2023-08-07T18:38:10;19.00;99.90
1992;DHT22;997;48.448;8.924;2023-08-07T18:40:36;18.90;99.90
1992;DHT22;997;48.448;8.924;2023-08-07T18:43:03;19.00;99.90
1992;DHT22;997;48.448;8.924;2023-08-07T18:45:29;18.90;99.90
1992;DHT22;997;48.448;8.924;2023-08-07T18:47:55;18.60;99.90
1992;DHT22;997;48.448;8.924;2023-08-07T18:50:22;18.50;99.90
1992;DHT22;997;48.448;8.924;2023-08-07T18:52:48;18.20;99.90
1992;DHT22;997;48.448;8.924;2023-08-07T18:55:14;18.00;99.90
1992;DHT22;997;48.448;8.924;2023-08-07T18:57:39;18.10;99.90
1992;DHT22;997;48.448;8.924;2023-08-07T19:00:06;18.00;99.90
1992;DHT22;997;48.448;8.924;2023-08-07T19:02:34;17.90;99.90
1992;DHT22;997;48.448;8.924;2023-08-07T19:05:00;18.00;99.90
1992;DHT22;997;48.448;8.924;2023-08-07T19:07:26;18.10;99.90
1992;DHT22;997;48.448;8.924;2023-08-07T19:09:52;17.90;99.90
1992;DHT22;997;48.448;8.924;2023-08-07T19:12:18;17.70;99.90
1992;DHT22;997;48.448;8.924;2023-08-07T19:14:45;17.80;99.90
1992;DHT22;997;48.448;8.924;2023-08-07T19:17:13;17.90;99.90
1992;DHT22;997;48.448;8.924;2023-08-07T19:19:39;17.70;99.90
1992;DHT22;997;48.448;8.924;2023-08-07T19:22:05;17.50;99.90